sensor_id;sensor_type;location;lat;lon;timestamp;temperature;humidity
54846;DHT22;53889;50.084;8.646;2023-05-07T00:01:34;17.70;96.50
54846;DHT22;53889;50.084;8.646;2023-05-07T00:04:01;17.80;96.50
54846;DHT22;53889;50.084;8.646;2023-05-07T00:06:28;17.80;96.50
54846;DHT22;53889;50.084;8.646;2023-05-07T00:08:56;17.70;96.70
54846;DHT22;53889;50.084;8.646;2023-05-07T00:11:23;17.70;96.70
54846;DHT22;53889;50.084;8.646;2023-05-07T00:13:49;17.80;96.60
54846;DHT22;53889;50.084;8.646;2023-05-07T00:16:17;17.70;96.50
54846;DHT22;53889;50.084;8.646;2023-05-07T00:18:44;17.80;96.50
54846;DHT22;53889;50.084;8.646;2023-05-07T00:21:11;17.80;96.50
54846;DHT22;53889;50.084;8.646;2023-05-07T00:23:38;17.90;96.50
54846;DHT22;53889;50.084;8.646;2023-05-07T00:26:05;17.90;96.40
54846;DHT22;53889;50.084;8.646;2023-05-07T00:28:31;17.90;96.40
54846;DHT22;53889;50.084;8.646;2023-05-07T00:30:58;18.00;96.30
54846;DHT22;53889;50.084;8.646;2023-05-07T00:33:26;18.00;96.20
54846;DHT22;53889;50.084;8.646;2023-05-07T00:35:53;18.00;96.30
54846;DHT22;53889;50.084;8.646;2023-05-07T00:38:20;17.90;96.40
54846;DHT22;53889;50.084;8.646;2023-05-07T00:40:47;17.90;96.40
54846;DHT22;53889;50.084;8.646;2023-05-07T00:43:14;18.00;96.40
54846;DHT22;53889;50.084;8.646;2023-05-07T00:45:40;17.90;96.50
54846;DHT22;53889;50.084;8.646;2023-05-07T00:48:07;18.00;96.50
54846;DHT22;53889;50.084;8.646;2023-05-07T00:50:35;18.00;96.50
54846;DHT22;53889;50.084;8.646;2023-05-07T00:53:02;18.00;96.60
54846;DHT22;53889;50.084;8.646;2023-05-07T00:55:29;18.00;96.50
54846;DHT22;53889;50.084;8.646;2023-05-07T00:57:56;18.00;96.50
54846;DHT22;53889;50.084;8.646;2023-05-07T01:00:23;18.00;96.50
54846;DHT22;53889;50.084;8.646;2023-05-07T01:02:50;17.90;96.60
54846;DHT22;53889;50.084;8.646;2023-05-07T01:05:18;17.90;96.60
54846;DHT22;53889;50.084;8.646;2023-05-07T01:07:47;17.90;96.60
54846;DHT22;53889;50.084;8.646;2023-05-07T01:10:14;17.90;96.60
54846;DHT22;53889;50.084;8.646;2023-05-07T01:12:42;17.90;96.60
54846;DHT22;53889;50.084;8.646;2023-05-07T01:15:09;17.80;96.60
54846;DHT22;53889;50.084;8.646;2023-05-07T01:17:39;17.80;96.70
54846;DHT22;53889;50.084;8.646;2023-05-07T01:20:11;17.80;96.80
54846;DHT22;53889;50.084;8.646;2023-05-07T01:22:41;17.70;96.80
54846;DHT22;53889;50.084;8.646;2023-05-07T01:25:09;17.70;97.00
54846;DHT22;53889;50.084;8.646;2023-05-07T01:27:40;17.70;97.10
54846;DHT22;53889;50.084;8.646;2023-05-07T01:30:08;17.60;97.10
54846;DHT22;53889;50.084;8.646;2023-05-07T01:32:40;17.60;97.10
54846;DHT22;53889;50.084;8.646;2023-05-07T01:35:11;17.60;97.20
54846;DHT22;53889;50.084;8.646;2023-05-07T01:40:09;17.60;97.20
54846;DHT22;53889;50.084;8.646;2023-05-07T01:42:36;17.70;97.10
54846;DHT22;53889;50.084;8.646;2023-05-07T01:45:04;17.60;97.10
54846;DHT22;53889;50.084;8.646;2023-05-07T01:47:32;17.70;97.20
54846;DHT22;53889;50.084;8.646;2023-05-07T01:49:59;17.70;97.30
54846;DHT22;53889;50.084;8.646;2023-05-07T01:52:27;17.60;97.30
54846;DHT22;53889;50.084;8.646;2023-05-07T01:54:54;17.60;97.40
54846;DHT22;53889;50.084;8.646;2023-05-07T01:57:22;17.50;97.40
54846;DHT22;53889;50.084;8.646;2023-05-07T01:59:48;17.50;97.50
54846;DHT22;53889;50.084;8.646;2023-05-07T02:02:16;17.50;97.60
54846;DHT22;53889;50.084;8.646;2023-05-07T02:04:43;17.50;97.50
54846;DHT22;53889;50.084;8.646;2023-05-07T02:07:12;17.50;97.50
54846;DHT22;53889;50.084;8.646;2023-05-07T02:09:38;17.60;97.60
54846;DHT22;53889;50.084;8.646;2023-05-07T02:12:05;17.50;97.60
54846;DHT22;53889;50.084;8.646;2023-05-07T02:14:33;17.50;97.60
54846;DHT22;53889;50.084;8.646;2023-05-07T02:17:00;17.50;97.70
54846;DHT22;53889;50.084;8.646;2023-05-07T02:19:27;17.40;97.70
54846;DHT22;53889;50.084;8.646;2023-05-07T02:21:53;17.40;97.80
54846;DHT22;53889;50.084;8.646;2023-05-07T02:24:21;17.40;97.90
54846;DHT22;53889;50.084;8.646;2023-05-07T02:26:48;17.40;97.80
54846;DHT22;53889;50.084;8.646;2023-05-07T02:29:14;17.40;97.90
54846;DHT22;53889;50.084;8.646;2023-05-07T02:31:42;17.40;97.90
54846;DHT22;53889;50.084;8.646;2023-05-07T02:34:10;17.30;97.90
54846;DHT22;53889;50.084;8.646;2023-05-07T02:36:36;17.40;97.90
54846;DHT22;53889;50.084;8.646;2023-05-07T02:39:08;17.40;98.00
54846;DHT22;53889;50.084;8.646;2023-05-07T02:41:35;17.30;98.10
54846;DHT22;53889;50.084;8.646;2023-05-07T02:44:01;17.40;98.10
54846;DHT22;53889;50.084;8.646;2023-05-07T02:46:28;17.40;98.10
54846;DHT22;53889;50.084;8.646;2023-05-07T02:49:02;17.30;98.20
54846;DHT22;53889;50.084;8.646;2023-05-07T02:51:30;17.30;98.20
54846;DHT22;53889;50.084;8.646;2023-05-07T02:53:59;17.40;98.20
54846;DHT22;53889;50.084;8.646;2023-05-07T02:56:26;17.40;98.20
54846;DHT22;53889;50.084;8.646;2023-05-07T02:58:53;17.30;98.30
54846;DHT22;53889;50.084;8.646;2023-05-07T03:01:22;17.30;98.30
54846;DHT22;53889;50.084;8.646;2023-05-07T03:04:02;17.20;98.40
54846;DHT22;53889;50.084;8.646;2023-05-07T03:06:29;17.10;98.60
54846;DHT22;53889;50.084;8.646;2023-05-07T03:08:55;17.10;98.80
54846;DHT22;53889;50.084;8.646;2023-05-07T03:11:22;17.10;98.90
54846;DHT22;53889;50.084;8.646;2023-05-07T03:13:49;17.00;99.00
54846;DHT22;53889;50.084;8.646;2023-05-07T03:16:17;17.00;99.00
54846;DHT22;53889;50.084;8.646;2023-05-07T03:18:44;17.00;99.00
54846;DHT22;53889;50.084;8.646;2023-05-07T03:21:12;17.10;98.90
54846;DHT22;53889;50.084;8.646;2023-05-07T03:23:39;17.10;98.80
54846;DHT22;53889;50.084;8.646;2023-05-07T03:26:05;17.10;98.70
54846;DHT22;53889;50.084;8.646;2023-05-07T03:28:32;17.20;98.60
54846;DHT22;53889;50.084;8.646;2023-05-07T03:31:02;17.10;98.50
54846;DHT22;53889;50.084;8.646;2023-05-07T03:33:32;17.10;98.50
54846;DHT22;53889;50.084;8.646;2023-05-07T03:35:59;17.10;98.40
54846;DHT22;53889;50.084;8.646;2023-05-07T03:38:27;17.20;98.40
54846;DHT22;53889;50.084;8.646;2023-05-07T03:40:54;17.20;98.30
54846;DHT22;53889;50.084;8.646;2023-05-07T03:43:21;17.20;98.20
54846;DHT22;53889;50.084;8.646;2023-05-07T03:45:55;17.20;98.20
54846;DHT22;53889;50.084;8.646;2023-05-07T03:48:25;17.20;98.10
54846;DHT22;53889;50.084;8.646;2023-05-07T03:50:55;17.20;98.20
54846;DHT22;53889;50.084;8.646;2023-05-07T03:53:22;17.20;98.20
54846;DHT22;53889;50.084;8.646;2023-05-07T03:55:50;17.20;98.10
54846;DHT22;53889;50.084;8.646;2023-05-07T03:58:17;17.10;98.10
54846;DHT22;53889;50.084;8.646;2023-05-07T04:00:44;17.10;98.10
54846;DHT22;53889;50.084;8.646;2023-05-07T04:03:21;17.10;98.20
54846;DHT22;53889;50.084;8.646;2023-05-07T04:05:48;17.00;98.20
54846;DHT22;53889;50.084;8.646;2023-05-07T04:08:15;17.00;98.20
54846;DHT22;53889;50.084;8.646;2023-05-07T04:10:46;17.00;98.30
54846;DHT22;53889;50.084;8.646;2023-05-07T04:13:14;17.00;98.40
54846;DHT22;53889;50.084;8.646;2023-05-07T04:15:41;16.90;98.50
54846;DHT22;53889;50.084;8.646;2023-05-07T04:18:10;16.90;98.70
54846;DHT22;53889;50.084;8.646;2023-05-07T04:20:38;16.80;98.80
54846;DHT22;53889;50.084;8.646;2023-05-07T04:23:09;16.80;98.90
54846;DHT22;53889;50.084;8.646;2023-05-07T04:25:36;16.70;99.00
54846;DHT22;53889;50.084;8.646;2023-05-07T04:28:10;16.80;99.00
54846;DHT22;53889;50.084;8.646;2023-05-07T04:30:39;16.70;99.10
54846;DHT22;53889;50.084;8.646;2023-05-07T04:33:07;16.80;99.20
54846;DHT22;53889;50.084;8.646;2023-05-07T04:35:35;16.80;99.20
54846;DHT22;53889;50.084;8.646;2023-05-07T04:38:04;16.50;99.00
54846;DHT22;53889;50.084;8.646;2023-05-07T04:40:31;16.90;99.00
54846;DHT22;53889;50.084;8.646;2023-05-07T04:42:59;16.90;98.70
54846;DHT22;53889;50.084;8.646;2023-05-07T04:45:29;16.90;98.70
54846;DHT22;53889;50.084;8.646;2023-05-07T04:47:57;16.90;98.70
54846;DHT22;53889;50.084;8.646;2023-05-07T04:50:24;16.90;98.50
54846;DHT22;53889;50.084;8.646;2023-05-07T04:52:54;17.00;98.40
54846;DHT22;53889;50.084;8.646;2023-05-07T04:55:23;16.90;98.50
54846;DHT22;53889;50.084;8.646;2023-05-07T04:57:51;17.00;98.60
54846;DHT22;53889;50.084;8.646;2023-05-07T05:00:18;17.00;98.50
54846;DHT22;53889;50.084;8.646;2023-05-07T05:02:47;17.00;98.50
54846;DHT22;53889;50.084;8.646;2023-05-07T05:05:19;17.10;98.40
54846;DHT22;53889;50.084;8.646;2023-05-07T05:07:49;17.10;98.50
54846;DHT22;53889;50.084;8.646;2023-05-07T05:10:17;17.10;98.50
54846;DHT22;53889;50.084;8.646;2023-05-07T05:12:44;17.10;98.40
54846;DHT22;53889;50.084;8.646;2023-05-07T05:15:11;17.20;98.50
54846;DHT22;53889;50.084;8.646;2023-05-07T05:17:39;17.20;98.50
54846;DHT22;53889;50.084;8.646;2023-05-07T05:20:07;16.90;98.60
54846;DHT22;53889;50.084;8.646;2023-05-07T05:22:36;17.20;98.80
54846;DHT22;53889;50.084;8.646;2023-05-07T05:25:04;17.30;98.70
54846;DHT22;53889;50.084;8.646;2023-05-07T05:27:31;17.30;98.60
54846;DHT22;53889;50.084;8.646;2023-05-07T05:29:58;17.10;98.70
54846;DHT22;53889;50.084;8.646;2023-05-07T05:32:25;17.20;98.70
54846;DHT22;53889;50.084;8.646;2023-05-07T05:34:54;17.30;98.70
54846;DHT22;53889;50.084;8.646;2023-05-07T05:37:21;17.30;98.40
54846;DHT22;53889;50.084;8.646;2023-05-07T05:39:50;17.40;98.20
54846;DHT22;53889;50.084;8.646;2023-05-07T05:42:18;17.30;98.10
54846;DHT22;53889;50.084;8.646;2023-05-07T05:44:45;17.40;98.30
54846;DHT22;53889;50.084;8.646;2023-05-07T05:47:12;17.40;98.20
54846;DHT22;53889;50.084;8.646;2023-05-07T05:49:38;17.40;98.30
54846;DHT22;53889;50.084;8.646;2023-05-07T05:52:07;17.50;97.80
54846;DHT22;53889;50.084;8.646;2023-05-07T05:54:33;17.60;97.70
54846;DHT22;53889;50.084;8.646;2023-05-07T05:57:02;17.60;97.80
54846;DHT22;53889;50.084;8.646;2023-05-07T05:59:29;17.70;97.60
54846;DHT22;53889;50.084;8.646;2023-05-07T06:01:57;17.70;97.30
54846;DHT22;53889;50.084;8.646;2023-05-07T06:04:24;17.80;97.20
54846;DHT22;53889;50.084;8.646;2023-05-07T06:06:51;17.80;97.20
54846;DHT22;53889;50.084;8.646;2023-05-07T06:09:17;17.80;97.10
54846;DHT22;53889;50.084;8.646;2023-05-07T06:11:44;17.90;97.00
54846;DHT22;53889;50.084;8.646;2023-05-07T06:14:13;18.00;97.00
54846;DHT22;53889;50.084;8.646;2023-05-07T06:16:40;18.20;97.00
54846;DHT22;53889;50.084;8.646;2023-05-07T06:19:07;18.20;96.80
54846;DHT22;53889;50.084;8.646;2023-05-07T06:21:34;17.90;96.50
54846;DHT22;53889;50.084;8.646;2023-05-07T06:24:01;18.40;96.40
54846;DHT22;53889;50.084;8.646;2023-05-07T06:26:28;18.60;96.00
54846;DHT22;53889;50.084;8.646;2023-05-07T06:28:54;18.80;95.80
54846;DHT22;53889;50.084;8.646;2023-05-07T06:31:29;19.00;95.40
54846;DHT22;53889;50.084;8.646;2023-05-07T06:34:03;18.90;95.00
54846;DHT22;53889;50.084;8.646;2023-05-07T06:36:36;18.90;95.20
54846;DHT22;53889;50.084;8.646;2023-05-07T06:39:11;19.10;94.70
54846;DHT22;53889;50.084;8.646;2023-05-07T06:41:38;19.10;95.00
54846;DHT22;53889;50.084;8.646;2023-05-07T06:44:09;19.30;94.70
54846;DHT22;53889;50.084;8.646;2023-05-07T06:46:45;19.70;94.30
54846;DHT22;53889;50.084;8.646;2023-05-07T06:49:12;19.60;94.20
54846;DHT22;53889;50.084;8.646;2023-05-07T06:51:39;19.40;94.50
54846;DHT22;53889;50.084;8.646;2023-05-07T06:54:06;19.40;94.50
54846;DHT22;53889;50.084;8.646;2023-05-07T06:56:35;19.40;94.20
54846;DHT22;53889;50.084;8.646;2023-05-07T06:59:03;19.40;94.30
54846;DHT22;53889;50.084;8.646;2023-05-07T07:01:34;19.60;94.30
54846;DHT22;53889;50.084;8.646;2023-05-07T07:04:04;20.00;94.00
54846;DHT22;53889;50.084;8.646;2023-05-07T07:06:31;20.30;93.40
54846;DHT22;53889;50.084;8.646;2023-05-07T07:08:59;21.00;92.80
54846;DHT22;53889;50.084;8.646;2023-05-07T07:11:27;21.90;91.30
54846;DHT22;53889;50.084;8.646;2023-05-07T07:13:53;22.30;90.40
54846;DHT22;53889;50.084;8.646;2023-05-07T07:16:21;22.70;90.00
54846;DHT22;53889;50.084;8.646;2023-05-07T07:18:49;22.90;88.00
54846;DHT22;53889;50.084;8.646;2023-05-07T07:21:17;22.30;88.00
54846;DHT22;53889;50.084;8.646;2023-05-07T07:23:45;22.00;88.70
54846;DHT22;53889;50.084;8.646;2023-05-07T07:26:13;21.80;89.00
54846;DHT22;53889;50.084;8.646;2023-05-07T07:28:43;21.70;89.20
54846;DHT22;53889;50.084;8.646;2023-05-07T07:31:11;21.70;88.30
54846;DHT22;53889;50.084;8.646;2023-05-07T07:33:39;21.80;88.20
54846;DHT22;53889;50.084;8.646;2023-05-07T07:36:07;21.90;88.70
54846;DHT22;53889;50.084;8.646;2023-05-07T07:38:36;22.00;89.20
54846;DHT22;53889;50.084;8.646;2023-05-07T07:41:03;22.20;89.20
54846;DHT22;53889;50.084;8.646;2023-05-07T07:43:31;22.50;87.40
54846;DHT22;53889;50.084;8.646;2023-05-07T07:45:58;22.60;86.00
54846;DHT22;53889;50.084;8.646;2023-05-07T07:48:25;22.30;85.80
54846;DHT22;53889;50.084;8.646;2023-05-07T07:50:53;22.40;86.50
54846;DHT22;53889;50.084;8.646;2023-05-07T07:53:20;21.90;87.40
54846;DHT22;53889;50.084;8.646;2023-05-07T07:55:48;21.70;89.30
54846;DHT22;53889;50.084;8.646;2023-05-07T07:58:18;21.50;89.10
54846;DHT22;53889;50.084;8.646;2023-05-07T08:00:46;21.30;89.30
54846;DHT22;53889;50.084;8.646;2023-05-07T08:03:14;21.40;89.40
54846;DHT22;53889;50.084;8.646;2023-05-07T08:05:45;21.30;89.70
54846;DHT22;53889;50.084;8.646;2023-05-07T08:08:12;21.10;89.90
54846;DHT22;53889;50.084;8.646;2023-05-07T08:10:40;21.00;90.00
54846;DHT22;53889;50.084;8.646;2023-05-07T08:13:17;20.90;90.30
54846;DHT22;53889;50.084;8.646;2023-05-07T08:15:44;21.00;90.20
54846;DHT22;53889;50.084;8.646;2023-05-07T08:18:12;20.90;90.30
54846;DHT22;53889;50.084;8.646;2023-05-07T08:20:39;20.90;90.30
54846;DHT22;53889;50.084;8.646;2023-05-07T08:23:10;21.00;90.30
54846;DHT22;53889;50.084;8.646;2023-05-07T08:25:38;21.20;90.10
54846;DHT22;53889;50.084;8.646;2023-05-07T08:28:05;21.20;89.60
54846;DHT22;53889;50.084;8.646;2023-05-07T08:30:33;21.70;89.80
54846;DHT22;53889;50.084;8.646;2023-05-07T08:33:00;21.20;89.70
54846;DHT22;53889;50.084;8.646;2023-05-07T08:35:27;21.20;90.10
54846;DHT22;53889;50.084;8.646;2023-05-07T08:37:54;21.20;90.00
54846;DHT22;53889;50.084;8.646;2023-05-07T08:40:22;21.20;89.90
54846;DHT22;53889;50.084;8.646;2023-05-07T08:42:52;21.20;89.80
54846;DHT22;53889;50.084;8.646;2023-05-07T08:45:20;21.10;90.00
54846;DHT22;53889;50.084;8.646;2023-05-07T08:47:52;21.10;90.20
54846;DHT22;53889;50.084;8.646;2023-05-07T08:50:23;21.20;90.00
54846;DHT22;53889;50.084;8.646;2023-05-07T08:52:51;21.30;89.90
54846;DHT22;53889;50.084;8.646;2023-05-07T08:55:20;21.40;89.50
54846;DHT22;53889;50.084;8.646;2023-05-07T08:57:47;21.50;89.20
54846;DHT22;53889;50.084;8.646;2023-05-07T09:00:16;21.50;88.90
54846;DHT22;53889;50.084;8.646;2023-05-07T09:02:46;21.60;88.80
54846;DHT22;53889;50.084;8.646;2023-05-07T09:05:14;21.70;89.00
54846;DHT22;53889;50.084;8.646;2023-05-07T09:07:41;21.80;88.40
54846;DHT22;53889;50.084;8.646;2023-05-07T09:10:09;21.90;87.90
54846;DHT22;53889;50.084;8.646;2023-05-07T09:12:38;22.50;87.00
54846;DHT22;53889;50.084;8.646;2023-05-07T09:15:07;22.70;85.70
54846;DHT22;53889;50.084;8.646;2023-05-07T09:17:34;23.20;84.80
54846;DHT22;53889;50.084;8.646;2023-05-07T09:20:05;23.70;84.50
54846;DHT22;53889;50.084;8.646;2023-05-07T09:22:35;24.00;82.70
54846;DHT22;53889;50.084;8.646;2023-05-07T09:25:06;23.90;82.20
54846;DHT22;53889;50.084;8.646;2023-05-07T09:27:34;23.90;82.80
54846;DHT22;53889;50.084;8.646;2023-05-07T09:30:06;24.50;81.90
54846;DHT22;53889;50.084;8.646;2023-05-07T09:32:35;25.30;79.80
54846;DHT22;53889;50.084;8.646;2023-05-07T09:35:04;25.80;78.90
54846;DHT22;53889;50.084;8.646;2023-05-07T09:37:31;26.60;77.10
54846;DHT22;53889;50.084;8.646;2023-05-07T09:40:00;26.80;75.70
54846;DHT22;53889;50.084;8.646;2023-05-07T09:42:31;27.50;75.00
54846;DHT22;53889;50.084;8.646;2023-05-07T09:45:00;27.60;73.90
54846;DHT22;53889;50.084;8.646;2023-05-07T09:47:36;27.50;73.90
54846;DHT22;53889;50.084;8.646;2023-05-07T09:50:06;27.60;73.50
54846;DHT22;53889;50.084;8.646;2023-05-07T09:52:35;27.50;73.60
54846;DHT22;53889;50.084;8.646;2023-05-07T09:55:06;28.30;72.80
54846;DHT22;53889;50.084;8.646;2023-05-07T09:57:34;28.70;71.40
54846;DHT22;53889;50.084;8.646;2023-05-07T10:00:06;29.30;70.40
54846;DHT22;53889;50.084;8.646;2023-05-07T10:02:47;29.60;69.70
54846;DHT22;53889;50.084;8.646;2023-05-07T10:05:18;30.00;68.10
54846;DHT22;53889;50.084;8.646;2023-05-07T10:07:46;30.40;67.60
54846;DHT22;53889;50.084;8.646;2023-05-07T10:10:15;30.50;66.50
54846;DHT22;53889;50.084;8.646;2023-05-07T10:12:44;30.50;66.00
54846;DHT22;53889;50.084;8.646;2023-05-07T10:15:16;29.90;67.20
54846;DHT22;53889;50.084;8.646;2023-05-07T10:17:48;29.70;67.00
54846;DHT22;53889;50.084;8.646;2023-05-07T10:20:16;30.10;66.90
54846;DHT22;53889;50.084;8.646;2023-05-07T10:22:47;30.50;66.10
54846;DHT22;53889;50.084;8.646;2023-05-07T10:25:22;30.50;65.10
54846;DHT22;53889;50.084;8.646;2023-05-07T10:27:50;30.40;64.50
54846;DHT22;53889;50.084;8.646;2023-05-07T10:30:26;30.20;66.40
54846;DHT22;53889;50.084;8.646;2023-05-07T10:32:56;29.30;66.80
54846;DHT22;53889;50.084;8.646;2023-05-07T10:35:32;29.10;66.80
54846;DHT22;53889;50.084;8.646;2023-05-07T10:38:03;28.80;66.90
54846;DHT22;53889;50.084;8.646;2023-05-07T10:40:33;28.40;67.40
54846;DHT22;53889;50.084;8.646;2023-05-07T10:43:02;28.50;67.20
54846;DHT22;53889;50.084;8.646;2023-05-07T10:45:35;29.00;67.30
54846;DHT22;53889;50.084;8.646;2023-05-07T10:48:11;29.30;66.20
54846;DHT22;53889;50.084;8.646;2023-05-07T10:50:39;29.60;64.90
54846;DHT22;53889;50.084;8.646;2023-05-07T10:53:24;29.50;65.20
54846;DHT22;53889;50.084;8.646;2023-05-07T10:56:26;29.00;65.60
54846;DHT22;53889;50.084;8.646;2023-05-07T10:59:30;28.90;65.50
54846;DHT22;53889;50.084;8.646;2023-05-07T11:02:02;28.90;65.00
54846;DHT22;53889;50.084;8.646;2023-05-07T11:05:19;28.70;65.20
54846;DHT22;53889;50.084;8.646;2023-05-07T11:07:54;28.40;63.40
54846;DHT22;53889;50.084;8.646;2023-05-07T11:10:22;28.70;64.50
54846;DHT22;53889;50.084;8.646;2023-05-07T11:12:58;28.90;62.60
54846;DHT22;53889;50.084;8.646;2023-05-07T11:15:43;28.50;63.60
54846;DHT22;53889;50.084;8.646;2023-05-07T11:18:23;28.30;64.40
54846;DHT22;53889;50.084;8.646;2023-05-07T11:20:54;28.40;63.90
54846;DHT22;53889;50.084;8.646;2023-05-07T11:24:09;28.30;64.00
54846;DHT22;53889;50.084;8.646;2023-05-07T11:26:49;28.60;63.30
54846;DHT22;53889;50.084;8.646;2023-05-07T11:29:20;28.70;63.10
54846;DHT22;53889;50.084;8.646;2023-05-07T11:31:49;28.90;63.10
54846;DHT22;53889;50.084;8.646;2023-05-07T11:34:21;28.90;62.90
54846;DHT22;53889;50.084;8.646;2023-05-07T11:36:50;28.80;63.00
54846;DHT22;53889;50.084;8.646;2023-05-07T11:39:30;28.80;63.40
54846;DHT22;53889;50.084;8.646;2023-05-07T11:41:58;28.70;63.10
54846;DHT22;53889;50.084;8.646;2023-05-07T11:44:40;28.80;62.80
54846;DHT22;53889;50.084;8.646;2023-05-07T11:47:07;28.80;63.00
54846;DHT22;53889;50.084;8.646;2023-05-07T11:49:34;28.80;62.10
54846;DHT22;53889;50.084;8.646;2023-05-07T11:52:01;28.90;62.10
54846;DHT22;53889;50.084;8.646;2023-05-07T11:54:35;28.70;61.70
54846;DHT22;53889;50.084;8.646;2023-05-07T11:57:02;28.60;61.70
54846;DHT22;53889;50.084;8.646;2023-05-07T11:59:30;28.60;61.50
54846;DHT22;53889;50.084;8.646;2023-05-07T12:02:04;28.70;60.70
54846;DHT22;53889;50.084;8.646;2023-05-07T12:04:30;28.80;60.50
54846;DHT22;53889;50.084;8.646;2023-05-07T12:06:57;28.70;61.00
54846;DHT22;53889;50.084;8.646;2023-05-07T12:09:24;28.60;61.30
54846;DHT22;53889;50.084;8.646;2023-05-07T12:11:51;28.30;61.40
54846;DHT22;53889;50.084;8.646;2023-05-07T12:14:18;28.70;60.80
54846;DHT22;53889;50.084;8.646;2023-05-07T12:16:46;29.10;60.30
54846;DHT22;53889;50.084;8.646;2023-05-07T12:19:13;29.30;60.00
54846;DHT22;53889;50.084;8.646;2023-05-07T12:21:40;29.70;58.80
54846;DHT22;53889;50.084;8.646;2023-05-07T12:24:08;30.00;57.50
54846;DHT22;53889;50.084;8.646;2023-05-07T12:26:37;30.00;57.60
54846;DHT22;53889;50.084;8.646;2023-05-07T12:29:06;30.00;58.10
54846;DHT22;53889;50.084;8.646;2023-05-07T12:31:33;30.30;57.80
54846;DHT22;53889;50.084;8.646;2023-05-07T12:34:02;30.30;57.70
54846;DHT22;53889;50.084;8.646;2023-05-07T12:36:36;29.80;57.70
54846;DHT22;53889;50.084;8.646;2023-05-07T12:39:04;30.00;58.20
54846;DHT22;53889;50.084;8.646;2023-05-07T12:41:36;30.00;57.90
54846;DHT22;53889;50.084;8.646;2023-05-07T12:44:04;29.60;58.20
54846;DHT22;53889;50.084;8.646;2023-05-07T12:46:31;29.70;57.80
54846;DHT22;53889;50.084;8.646;2023-05-07T12:48:58;29.50;58.50
54846;DHT22;53889;50.084;8.646;2023-05-07T12:51:27;29.60;58.60
54846;DHT22;53889;50.084;8.646;2023-05-07T12:53:56;29.60;57.90
54846;DHT22;53889;50.084;8.646;2023-05-07T12:56:23;29.10;58.60
54846;DHT22;53889;50.084;8.646;2023-05-07T12:58:50;28.80;59.40
54846;DHT22;53889;50.084;8.646;2023-05-07T13:01:16;28.90;59.10
54846;DHT22;53889;50.084;8.646;2023-05-07T13:03:48;28.70;59.60
54846;DHT22;53889;50.084;8.646;2023-05-07T13:06:15;28.60;59.90
54846;DHT22;53889;50.084;8.646;2023-05-07T13:08:43;28.40;59.10
54846;DHT22;53889;50.084;8.646;2023-05-07T13:11:10;27.60;59.40
54846;DHT22;53889;50.084;8.646;2023-05-07T13:13:38;27.40;60.30
54846;DHT22;53889;50.084;8.646;2023-05-07T13:16:07;27.30;60.30
54846;DHT22;53889;50.084;8.646;2023-05-07T13:18:34;27.20;60.60
54846;DHT22;53889;50.084;8.646;2023-05-07T13:21:01;27.30;60.10
54846;DHT22;53889;50.084;8.646;2023-05-07T13:23:28;27.30;60.30
54846;DHT22;53889;50.084;8.646;2023-05-07T13:25:56;27.20;61.20
54846;DHT22;53889;50.084;8.646;2023-05-07T13:28:23;27.10;61.30
54846;DHT22;53889;50.084;8.646;2023-05-07T13:30:50;27.30;61.00
54846;DHT22;53889;50.084;8.646;2023-05-07T13:33:18;27.60;61.30
54846;DHT22;53889;50.084;8.646;2023-05-07T13:35:45;27.60;61.30
54846;DHT22;53889;50.084;8.646;2023-05-07T13:38:11;27.50;61.30
54846;DHT22;53889;50.084;8.646;2023-05-07T13:40:38;27.30;61.40
54846;DHT22;53889;50.084;8.646;2023-05-07T13:43:06;27.20;60.90
54846;DHT22;53889;50.084;8.646;2023-05-07T13:45:33;27.10;60.80
54846;DHT22;53889;50.084;8.646;2023-05-07T13:48:00;27.30;61.10
54846;DHT22;53889;50.084;8.646;2023-05-07T13:50:27;27.20;60.30
54846;DHT22;53889;50.084;8.646;2023-05-07T13:52:55;27.00;60.50
54846;DHT22;53889;50.084;8.646;2023-05-07T13:55:23;26.80;61.00
54846;DHT22;53889;50.084;8.646;2023-05-07T13:57:54;26.80;61.10
54846;DHT22;53889;50.084;8.646;2023-05-07T14:00:23;26.80;61.10
54846;DHT22;53889;50.084;8.646;2023-05-07T14:02:50;27.00;61.60
54846;DHT22;53889;50.084;8.646;2023-05-07T14:05:17;27.20;62.10
54846;DHT22;53889;50.084;8.646;2023-05-07T14:07:43;27.20;63.00
54846;DHT22;53889;50.084;8.646;2023-05-07T14:10:10;27.30;62.90
54846;DHT22;53889;50.084;8.646;2023-05-07T14:12:38;27.10;63.00
54846;DHT22;53889;50.084;8.646;2023-05-07T14:15:06;26.70;63.50
54846;DHT22;53889;50.084;8.646;2023-05-07T14:17:35;26.50;64.00
54846;DHT22;53889;50.084;8.646;2023-05-07T14:20:01;26.40;63.30
54846;DHT22;53889;50.084;8.646;2023-05-07T14:22:28;26.30;63.10
54846;DHT22;53889;50.084;8.646;2023-05-07T14:24:55;26.40;63.00
54846;DHT22;53889;50.084;8.646;2023-05-07T14:27:21;26.40;63.00
54846;DHT22;53889;50.084;8.646;2023-05-07T14:29:48;26.40;63.70
54846;DHT22;53889;50.084;8.646;2023-05-07T14:32:16;26.40;64.30
54846;DHT22;53889;50.084;8.646;2023-05-07T14:34:44;26.20;64.00
54846;DHT22;53889;50.084;8.646;2023-05-07T14:37:11;26.20;64.50
54846;DHT22;53889;50.084;8.646;2023-05-07T14:39:38;26.30;64.10
54846;DHT22;53889;50.084;8.646;2023-05-07T14:42:05;26.10;64.40
54846;DHT22;53889;50.084;8.646;2023-05-07T14:44:33;26.00;64.30
54846;DHT22;53889;50.084;8.646;2023-05-07T14:46:59;25.70;65.40
54846;DHT22;53889;50.084;8.646;2023-05-07T14:49:26;25.70;65.80
54846;DHT22;53889;50.084;8.646;2023-05-07T14:51:57;25.90;66.00
54846;DHT22;53889;50.084;8.646;2023-05-07T14:54:24;26.00;65.60
54846;DHT22;53889;50.084;8.646;2023-05-07T14:56:51;26.00;65.70
54846;DHT22;53889;50.084;8.646;2023-05-07T14:59:18;25.90;66.00
54846;DHT22;53889;50.084;8.646;2023-05-07T15:01:46;25.90;65.60
54846;DHT22;53889;50.084;8.646;2023-05-07T15:04:13;25.80;66.10
54846;DHT22;53889;50.084;8.646;2023-05-07T15:06:39;25.70;65.90
54846;DHT22;53889;50.084;8.646;2023-05-07T15:09:07;25.60;66.90
54846;DHT22;53889;50.084;8.646;2023-05-07T15:11:34;25.60;66.80
54846;DHT22;53889;50.084;8.646;2023-05-07T15:14:02;25.40;66.60
54846;DHT22;53889;50.084;8.646;2023-05-07T15:16:29;25.40;67.10
54846;DHT22;53889;50.084;8.646;2023-05-07T15:18:57;25.40;67.20
54846;DHT22;53889;50.084;8.646;2023-05-07T15:21:23;25.30;66.80
54846;DHT22;53889;50.084;8.646;2023-05-07T15:23:52;25.30;66.60
54846;DHT22;53889;50.084;8.646;2023-05-07T15:26:20;25.10;67.10
54846;DHT22;53889;50.084;8.646;2023-05-07T15:28:46;25.10;67.00
54846;DHT22;53889;50.084;8.646;2023-05-07T15:31:15;25.00;67.40
54846;DHT22;53889;50.084;8.646;2023-05-07T15:33:42;24.90;67.40
54846;DHT22;53889;50.084;8.646;2023-05-07T15:36:10;25.00;67.50
54846;DHT22;53889;50.084;8.646;2023-05-07T15:38:36;25.10;67.30
54846;DHT22;53889;50.084;8.646;2023-05-07T15:41:03;24.90;67.40
54846;DHT22;53889;50.084;8.646;2023-05-07T15:43:31;24.90;67.70